createdAt,value
2022-11-12T00:00:32.314Z,12.73
2022-11-12T00:03:18.140Z,12.88
2022-11-12T00:06:04.178Z,13.40
2022-11-12T00:08:49.822Z,14.32
2022-11-12T00:11:35.542Z,14.27
2022-11-12T00:14:21.675Z,14.18
2022-11-12T00:17:07.651Z,13.85
2022-11-12T00:19:54.085Z,13.73
2022-11-12T00:22:39.839Z,13.20
2022-11-12T00:25:25.502Z,13.73
2022-11-12T00:28:11.290Z,14.15
2022-11-12T00:30:57.258Z,14.02
2022-11-12T00:33:43.457Z,13.98
2022-11-12T00:36:29.476Z,14.80
2022-11-12T00:39:15.267Z,15.88
2022-11-12T00:42:01.715Z,14.70
2022-11-12T00:44:47.447Z,15.10
2022-11-12T00:47:33.245Z,14.87
2022-11-12T00:50:19.009Z,15.00
2022-11-12T00:53:04.961Z,14.70
2022-11-12T00:55:50.615Z,15.27
2022-11-12T00:58:36.272Z,14.35
2022-11-12T01:01:22.056Z,13.77
2022-11-12T01:04:08.040Z,12.95
2022-11-12T01:06:53.915Z,12.68
2022-11-12T01:09:39.557Z,12.50
2022-11-12T01:12:25.323Z,13.48
2022-11-12T01:15:11.149Z,14.13
2022-11-12T01:17:56.782Z,14.10
2022-11-12T01:20:42.394Z,14.07
2022-11-12T01:23:28.314Z,14.57
2022-11-12T01:26:15.924Z,14.25
2022-11-12T01:29:02.394Z,14.55
2022-11-12T01:31:48.017Z,14.65
2022-11-12T01:34:33.877Z,13.93
2022-11-12T01:37:19.682Z,14.00
2022-11-12T01:40:06.039Z,15.18
2022-11-12T01:42:53.057Z,13.88
2022-11-12T01:45:45.470Z,15.45
2022-11-12T01:48:38.569Z,15.30
2022-11-12T01:51:27.968Z,15.48
2022-11-12T01:54:15.303Z,15.35
2022-11-12T01:57:02.022Z,15.27
2022-11-12T01:59:49.126Z,15.10
2022-11-12T02:02:36.797Z,15.85
2022-11-12T02:05:23.278Z,14.98
2022-11-12T02:08:11.111Z,14.82
2022-11-12T02:10:56.773Z,15.95
2022-11-12T02:13:58.081Z,15.60
2022-11-12T02:16:45.453Z,15.95
2022-11-12T02:19:31.432Z,15.73
2022-11-12T02:22:17.162Z,16.02
2022-11-12T02:25:02.947Z,16.62
2022-11-12T02:27:51.661Z,16.77
2022-11-12T02:30:44.080Z,17.23
2022-11-12T02:33:29.863Z,16.33
2022-11-12T02:36:15.632Z,16.87
2022-11-12T02:39:01.701Z,17.50
2022-11-12T02:41:47.611Z,16.62
2022-11-12T02:44:33.569Z,16.25
2022-11-12T02:47:19.213Z,16.95
2022-11-12T02:50:05.438Z,17.85
2022-11-12T02:52:51.414Z,18.95
2022-11-12T02:55:37.212Z,17.37
2022-11-12T02:58:23.331Z,17.20
2022-11-12T03:01:09.107Z,17.77
2022-11-12T03:03:55.245Z,17.12
2022-11-12T03:06:41.123Z,18.87
2022-11-12T03:09:27.168Z,17.42
2022-11-12T03:14:58.792Z,17.15
2022-11-12T03:17:44.418Z,18.17
2022-11-12T03:20:30.305Z,18.15
2022-11-12T03:23:16.201Z,17.87
2022-11-12T03:26:03.341Z,17.40
2022-11-12T03:28:51.343Z,18.05
2022-11-12T03:31:37.017Z,17.50
2022-11-12T03:34:22.889Z,18.48
2022-11-12T03:37:09.613Z,20.20
2022-11-12T03:39:55.433Z,19.17
2022-11-12T03:42:48.237Z,18.67
2022-11-12T03:45:34.339Z,18.60
2022-11-12T03:48:20.125Z,18.62
2022-11-12T03:51:05.837Z,19.33
2022-11-12T03:53:51.716Z,18.83
2022-11-12T03:56:37.442Z,19.30
2022-11-12T03:59:23.094Z,19.48
2022-11-12T04:02:14.327Z,19.33
2022-11-12T04:05:19.251Z,17.83
2022-11-12T04:08:34.942Z,17.65
2022-11-12T04:11:21.086Z,17.08
2022-11-12T04:14:07.030Z,17.23
2022-11-12T04:17:11.161Z,17.62
2022-11-12T04:20:15.630Z,17.42
2022-11-12T04:23:01.599Z,17.75
2022-11-12T04:26:05.593Z,18.25
2022-11-12T04:29:10.026Z,17.23
2022-11-12T04:31:55.935Z,17.27
2022-11-12T04:34:42.113Z,16.98
2022-11-12T04:37:29.765Z,17.17
2022-11-12T04:40:42.808Z,17.30
2022-11-12T04:43:47.252Z,19.15
2022-11-12T04:46:33.263Z,17.73
2022-11-12T04:49:18.927Z,16.35
2022-11-12T04:52:07.786Z,16.33
2022-11-12T04:54:54.024Z,16.70
2022-11-12T04:57:40.040Z,17.83
2022-11-12T05:00:25.816Z,17.08
2022-11-12T05:03:11.786Z,16.15
2022-11-12T05:06:04.527Z,16.67
2022-11-12T05:08:50.539Z,17.23
2022-11-12T05:11:36.419Z,17.62
2022-11-12T05:14:23.325Z,17.77
2022-11-12T05:17:09.242Z,16.50
2022-11-12T05:19:54.908Z,17.73
2022-11-12T05:22:47.734Z,16.45
2022-11-12T05:25:36.443Z,16.23
2022-11-12T05:31:08.526Z,16.90
2022-11-12T05:33:54.572Z,16.20
2022-11-12T05:36:40.460Z,16.83
2022-11-12T05:39:26.260Z,17.55
2022-11-12T05:42:13.803Z,15.52
2022-11-12T05:45:00.207Z,15.52
2022-11-12T05:47:46.064Z,15.27
2022-11-12T05:50:39.811Z,15.15
2022-11-12T05:53:31.190Z,16.08
2022-11-12T05:56:16.953Z,16.50
2022-11-12T05:59:08.255Z,14.38
2022-11-12T06:01:54.887Z,15.85
2022-11-12T06:04:40.578Z,16.08
2022-11-12T06:07:26.225Z,14.98
2022-11-12T06:10:16.049Z,15.80
2022-11-12T06:13:05.032Z,15.93
2022-11-12T06:15:51.863Z,15.88
2022-11-12T06:18:37.591Z,18.98
2022-11-12T06:21:23.247Z,49.80
2022-11-12T06:24:08.929Z,49.28
2022-11-12T06:26:54.780Z,28.02
2022-11-12T06:29:40.705Z,24.42
2022-11-12T06:32:26.429Z,26.98
2022-11-12T06:35:12.102Z,25.02
2022-11-12T06:37:57.744Z,27.30
2022-11-12T06:40:43.755Z,32.08
2022-11-12T06:43:31.100Z,28.35
2022-11-12T06:46:17.787Z,26.08
2022-11-12T06:49:03.798Z,25.45
2022-11-12T06:51:52.553Z,24.40
2022-11-12T06:54:38.351Z,30.27
2022-11-12T06:57:24.185Z,33.85
2022-11-12T07:00:11.778Z,34.95
2022-11-12T07:02:57.866Z,31.45
2022-11-12T07:05:43.767Z,28.20
2022-11-12T07:08:30.101Z,26.27
2022-11-12T07:11:17.918Z,27.37
2022-11-12T07:14:06.870Z,28.35
2022-11-12T07:16:52.827Z,28.67
2022-11-12T07:19:38.515Z,21.85
2022-11-12T07:22:24.671Z,22.80
2022-11-12T07:25:10.187Z,23.25
2022-11-12T07:27:55.889Z,24.12
2022-11-12T07:30:41.691Z,26.08
2022-11-12T07:33:28.477Z,27.08
2022-11-12T07:36:16.099Z,28.52
2022-11-12T07:39:02.215Z,27.27
2022-11-12T07:41:47.950Z,25.85
2022-11-12T07:44:33.736Z,23.95
2022-11-12T07:47:19.655Z,21.77
2022-11-12T07:50:05.779Z,23.27
2022-11-12T07:52:51.915Z,23.02
2022-11-12T07:55:37.759Z,18.85
2022-11-12T07:58:24.675Z,18.50
2022-11-12T08:01:23.164Z,18.10
2022-11-12T08:04:10.322Z,19.27
2022-11-12T08:06:56.239Z,20.15
2022-11-12T08:09:42.276Z,20.02
2022-11-12T08:12:29.223Z,21.02
2022-11-12T08:15:15.047Z,26.20
2022-11-12T08:18:00.770Z,22.27
2022-11-12T08:20:46.564Z,22.73
2022-11-12T08:23:32.555Z,22.40
2022-11-12T08:26:19.854Z,21.42
2022-11-12T08:29:08.727Z,19.95
2022-11-12T08:31:54.714Z,19.92
2022-11-12T08:34:41.369Z,18.83
2022-11-12T08:37:27.439Z,19.27
2022-11-12T08:40:13.221Z,19.67
2022-11-12T08:43:04.162Z,19.75
2022-11-12T08:45:50.161Z,19.67
2022-11-12T08:48:36.658Z,19.30
2022-11-12T08:51:22.530Z,19.25
2022-11-12T08:54:08.611Z,20.42
2022-11-12T08:56:54.444Z,21.40
2022-11-12T08:59:39.989Z,21.25
2022-11-12T09:02:25.751Z,21.58
2022-11-12T09:05:11.286Z,21.58
2022-11-12T09:07:59.110Z,21.77
2022-11-12T09:10:45.500Z,21.85
2022-11-12T09:13:31.565Z,21.77
2022-11-12T09:16:18.106Z,21.33
2022-11-12T09:19:04.182Z,21.35
2022-11-12T09:21:49.804Z,21.60
2022-11-12T09:24:35.605Z,22.55
2022-11-12T09:27:21.259Z,19.50
2022-11-12T09:30:07.747Z,21.77
2022-11-12T09:32:57.947Z,24.12
2022-11-12T09:35:45.545Z,23.33
2022-11-12T09:38:31.540Z,23.85
2022-11-12T09:41:22.627Z,23.42
2022-11-12T09:44:15.415Z,22.35
2022-11-12T09:47:08.021Z,21.75
2022-11-12T09:52:44.277Z,21.58
2022-11-12T09:55:36.771Z,23.92
2022-11-12T09:58:22.616Z,23.67
2022-11-12T10:01:17.240Z,22.20
2022-11-12T10:04:17.656Z,22.25
2022-11-12T10:07:09.461Z,22.65
2022-11-12T10:10:03.841Z,21.77
2022-11-12T10:13:17.594Z,21.92
2022-11-12T10:16:42.785Z,21.23
2022-11-12T10:19:49.951Z,22.90
2022-11-12T10:22:44.628Z,22.73
2022-11-12T10:25:31.406Z,21.92
2022-11-12T10:28:33.104Z,21.70
2022-11-12T10:31:22.170Z,21.55
2022-11-12T10:34:13.890Z,20.65
2022-11-12T10:37:12.155Z,21.13
2022-11-12T10:39:57.691Z,20.85
2022-11-12T10:43:00.570Z,22.23
2022-11-12T10:45:49.221Z,22.08
2022-11-12T10:48:35.647Z,19.12
2022-11-12T10:51:57.736Z,21.27
2022-11-12T10:54:43.756Z,21.05
2022-11-12T10:57:29.602Z,19.80
2022-11-12T11:00:18.979Z,18.83
2022-11-12T11:03:22.814Z,19.98
2022-11-12T11:06:14.729Z,18.25
2022-11-12T11:09:16.691Z,19.95
2022-11-12T11:12:02.856Z,18.30
2022-11-12T11:15:07.326Z,20.20
2022-11-12T11:17:53.457Z,19.75
2022-11-12T11:20:44.545Z,20.37
2022-11-12T11:23:46.297Z,17.62
2022-11-12T11:26:50.912Z,17.80
2022-11-12T11:30:15.294Z,18.87
2022-11-12T11:33:10.082Z,18.20
2022-11-12T11:36:22.112Z,18.98
2022-11-12T11:39:39.030Z,19.67
2022-11-12T11:42:38.340Z,20.52
2022-11-12T11:45:34.583Z,19.27
2022-11-12T11:48:48.382Z,20.67
2022-11-12T11:51:57.207Z,20.65
2022-11-12T11:55:21.163Z,19.40
2022-11-12T11:58:12.842Z,19.85
2022-11-12T12:01:20.377Z,19.02
2022-11-12T12:04:27.843Z,19.25
2022-11-12T12:07:45.093Z,17.48
2022-11-12T12:11:09.885Z,18.48
2022-11-12T12:14:05.123Z,18.50
2022-11-12T12:20:14.468Z,18.10
2022-11-12T12:23:10.786Z,17.35
2022-11-12T12:26:00.402Z,18.52
2022-11-12T12:28:46.388Z,20.15
2022-11-12T12:31:46.255Z,20.88
2022-11-12T12:34:38.935Z,20.92
2022-11-12T12:37:27.877Z,21.33
2022-11-12T12:40:34.001Z,20.42
2022-11-12T12:43:32.523Z,20.12
2022-11-12T12:46:23.197Z,21.20
2022-11-12T12:49:16.167Z,21.17
2022-11-12T12:52:02.185Z,20.90
2022-11-12T12:54:47.735Z,22.15
2022-11-12T12:57:37.909Z,20.35
2022-11-12T13:00:40.345Z,18.90
2022-11-12T13:03:47.311Z,19.62
2022-11-12T13:06:39.008Z,19.37
2022-11-12T13:09:25.793Z,20.05
2022-11-12T13:12:11.552Z,19.83
2022-11-12T13:15:13.150Z,20.27
2022-11-12T13:17:59.178Z,19.05
2022-11-12T13:21:07.993Z,20.70
2022-11-12T13:24:07.174Z,20.23
2022-11-12T13:26:59.983Z,20.45
2022-11-12T13:29:47.244Z,21.00
2022-11-12T13:32:35.039Z,21.92
2022-11-12T13:35:23.680Z,22.73
2022-11-12T13:38:09.339Z,20.90
2022-11-12T13:41:16.915Z,21.30
2022-11-12T13:44:06.751Z,21.55
2022-11-12T13:46:53.483Z,21.23
2022-11-12T13:49:39.497Z,20.05
2022-11-12T13:52:25.305Z,19.33
2022-11-12T13:55:17.528Z,17.90
2022-11-12T13:58:03.451Z,17.02
2022-11-12T14:01:00.361Z,16.10
2022-11-12T14:03:48.743Z,14.68
2022-11-12T14:06:37.777Z,13.88
2022-11-12T14:09:29.884Z,12.20
2022-11-12T14:12:37.062Z,12.27
2022-11-12T14:15:31.955Z,13.05
2022-11-12T14:18:30.630Z,15.00
2022-11-12T14:21:17.906Z,15.48
2022-11-12T14:24:04.705Z,15.55
2022-11-12T14:26:51.007Z,15.68
2022-11-12T14:29:41.079Z,14.82
2022-11-12T14:35:31.693Z,15.68
2022-11-12T14:38:21.755Z,15.88
2022-11-12T14:41:20.388Z,17.40
2022-11-12T14:44:13.937Z,16.98
2022-11-12T14:47:00.518Z,15.70
2022-11-12T14:49:48.124Z,16.83
2022-11-12T14:52:37.571Z,15.43
2022-11-12T14:55:26.886Z,14.77
2022-11-12T14:58:14.935Z,15.32
2022-11-12T15:04:51.844Z,15.00
2022-11-12T15:07:58.723Z,16.60
2022-11-12T15:10:45.060Z,17.05
2022-11-12T15:13:38.406Z,16.85
2022-11-12T15:16:27.540Z,17.75
2022-11-12T15:19:28.883Z,18.37
2022-11-12T15:22:22.199Z,17.95
2022-11-12T15:25:24.951Z,18.02
2022-11-12T15:31:22.388Z,18.95
2022-11-12T15:34:48.098Z,22.40
2022-11-12T15:37:41.138Z,23.50
2022-11-12T15:40:26.951Z,24.20
2022-11-12T15:43:18.526Z,22.52
2022-11-12T15:46:04.276Z,22.37
2022-11-12T15:48:55.509Z,22.85
2022-11-12T15:51:41.658Z,23.23
2022-11-12T15:54:27.251Z,23.75
2022-11-12T15:57:19.026Z,23.80
2022-11-12T16:00:09.884Z,23.62
2022-11-12T16:02:59.228Z,22.60
2022-11-12T16:05:45.598Z,23.40
2022-11-12T16:08:31.432Z,23.80
2022-11-12T16:11:35.645Z,24.70
2022-11-12T16:14:24.797Z,29.25
2022-11-12T16:17:15.719Z,27.45
2022-11-12T16:20:01.749Z,26.05
2022-11-12T16:22:48.696Z,28.95
2022-11-12T16:25:36.340Z,38.83
2022-11-12T16:28:22.200Z,38.67
2022-11-12T16:31:08.275Z,37.90
2022-11-12T16:33:54.098Z,39.65
2022-11-12T16:36:39.971Z,41.65
2022-11-12T16:39:25.718Z,43.17
2022-11-12T16:42:11.347Z,45.53
2022-11-12T16:44:57.207Z,42.55
2022-11-12T16:47:45.492Z,38.80
2022-11-12T16:50:31.163Z,41.13
2022-11-12T16:53:16.770Z,37.45
2022-11-12T16:56:02.586Z,41.28
2022-11-12T16:58:49.155Z,42.40
2022-11-12T17:01:35.312Z,40.65
2022-11-12T17:04:24.286Z,40.25
2022-11-12T17:07:10.013Z,45.00
2022-11-12T17:09:55.695Z,43.87
2022-11-12T17:12:41.367Z,42.85
2022-11-12T17:15:27.239Z,42.85
2022-11-12T17:18:13.337Z,39.97
2022-11-12T17:21:09.965Z,36.47
2022-11-12T17:23:57.905Z,34.40
2022-11-12T17:26:43.498Z,35.03
2022-11-12T17:29:29.449Z,34.33
2022-11-12T17:32:15.228Z,34.42
2022-11-12T17:35:00.803Z,32.72
2022-11-12T17:37:46.508Z,32.13
2022-11-12T17:40:32.075Z,31.75
2022-11-12T17:43:17.713Z,31.95
2022-11-12T17:46:04.804Z,30.27
2022-11-12T17:48:50.815Z,35.40
2022-11-12T17:51:36.841Z,34.95
2022-11-12T17:54:22.780Z,35.25
2022-11-12T17:57:08.382Z,35.88
2022-11-12T17:59:54.276Z,37.35
2022-11-12T18:02:39.846Z,36.70
2022-11-12T18:05:25.559Z,38.92
2022-11-12T18:08:11.678Z,37.90
2022-11-12T18:10:57.647Z,38.50
2022-11-12T18:13:43.343Z,39.05
2022-11-12T18:16:29.225Z,37.50
2022-11-12T18:19:15.688Z,39.95
2022-11-12T18:22:02.313Z,36.80
2022-11-12T18:24:48.589Z,38.33
2022-11-12T18:27:34.315Z,37.25
2022-11-12T18:30:19.995Z,38.28
2022-11-12T18:33:05.728Z,38.13
2022-11-12T18:36:01.103Z,41.75
2022-11-12T18:38:49.931Z,44.60
2022-11-12T18:41:35.758Z,48.38
2022-11-12T18:44:25.858Z,48.60
2022-11-12T18:47:12.164Z,49.85
2022-11-12T18:49:57.842Z,65.87
2022-11-12T18:52:43.692Z,93.90
2022-11-12T18:55:29.402Z,72.68
2022-11-12T18:58:15.115Z,52.58
2022-11-12T19:01:05.342Z,52.38
2022-11-12T19:03:55.811Z,57.47
2022-11-12T19:06:41.699Z,59.22
2022-11-12T19:09:27.395Z,56.17
2022-11-12T19:12:13.348Z,60.20
2022-11-12T19:14:58.997Z,58.40
2022-11-12T19:17:44.868Z,57.90
2022-11-12T19:20:30.691Z,56.35
2022-11-12T19:23:16.434Z,57.88
2022-11-12T19:26:03.736Z,59.47
2022-11-12T19:28:49.682Z,54.88
2022-11-12T19:31:35.540Z,52.90
2022-11-12T19:34:21.299Z,50.60
2022-11-12T19:37:31.960Z,53.78
2022-11-12T19:40:12.908Z,66.32
2022-11-12T19:42:58.799Z,67.32
2022-11-12T19:45:44.699Z,65.25
2022-11-12T19:48:31.248Z,61.47
2022-11-12T19:51:17.670Z,69.35
2022-11-12T19:54:04.532Z,71.80
2022-11-12T19:56:50.544Z,67.43
2022-11-12T19:59:36.245Z,62.78
2022-11-12T20:02:21.926Z,65.03
2022-11-12T20:05:07.979Z,65.40
2022-11-12T20:07:55.695Z,62.40
2022-11-12T20:10:41.335Z,59.65
2022-11-12T20:13:27.510Z,53.78
2022-11-12T20:16:16.108Z,52.42
2022-11-12T20:19:03.489Z,48.42
2022-11-12T20:21:49.401Z,43.65
2022-11-12T20:24:35.158Z,39.75
2022-11-12T20:27:20.968Z,46.05
2022-11-12T20:30:07.736Z,49.03
2022-11-12T20:32:53.665Z,49.22
2022-11-12T20:35:39.445Z,51.15
2022-11-12T20:38:25.559Z,50.28
2022-11-12T20:41:22.039Z,48.25
2022-11-12T20:44:08.153Z,48.67
2022-11-12T20:46:53.900Z,49.28
2022-11-12T20:49:39.719Z,48.63
2022-11-12T20:52:25.688Z,48.17
2022-11-12T20:55:11.654Z,49.90
2022-11-12T20:57:57.755Z,52.05
2022-11-12T21:00:43.342Z,48.80
2022-11-12T21:03:29.350Z,51.25
2022-11-12T21:06:17.471Z,47.88
2022-11-12T21:09:03.520Z,46.60
2022-11-12T21:11:49.695Z,44.72
2022-11-12T21:14:36.006Z,42.13
2022-11-12T21:17:21.684Z,41.53
2022-11-12T21:20:07.662Z,40.97
2022-11-12T21:22:53.394Z,41.47
2022-11-12T21:25:40.084Z,39.33
2022-11-12T21:28:26.360Z,40.97
2022-11-12T21:31:20.585Z,39.30
2022-11-12T21:34:07.057Z,40.25
2022-11-12T21:36:52.839Z,39.40
2022-11-12T21:39:38.631Z,37.92
2022-11-12T21:42:24.386Z,38.17
2022-11-12T21:45:10.582Z,37.55
2022-11-12T21:47:56.738Z,39.25
2022-11-12T21:50:42.642Z,40.90
2022-11-12T21:53:28.387Z,38.70
2022-11-12T21:56:17.603Z,38.53
2022-11-12T21:59:04.365Z,34.75
2022-11-12T22:01:49.951Z,35.83
2022-11-12T22:04:35.631Z,33.17
2022-11-12T22:07:21.319Z,33.20
2022-11-12T22:10:07.803Z,36.00
2022-11-12T22:13:24.860Z,35.65
2022-11-12T22:15:59.339Z,33.88
2022-11-12T22:18:49.940Z,35.67
2022-11-12T22:21:39.941Z,34.92
2022-11-12T22:24:26.082Z,35.03
2022-11-12T22:27:11.620Z,35.97
2022-11-12T22:29:57.431Z,34.30
2022-11-12T22:32:43.088Z,32.17
2022-11-12T22:35:28.654Z,34.00
2022-11-12T22:38:14.458Z,32.13
2022-11-12T22:41:01.788Z,31.75
2022-11-12T22:43:53.162Z,30.83
2022-11-12T22:46:39.122Z,33.25
2022-11-12T22:49:24.853Z,36.65
2022-11-12T22:52:10.386Z,35.53
2022-11-12T22:54:56.031Z,34.55
2022-11-12T22:57:41.718Z,33.28
2022-11-12T23:00:31.895Z,34.47
2022-11-12T23:03:17.730Z,35.38
2022-11-12T23:06:05.798Z,31.85
2022-11-12T23:08:53.348Z,32.53
2022-11-12T23:11:39.325Z,33.47
2022-11-12T23:14:25.075Z,32.53
2022-11-12T23:17:10.711Z,31.67
2022-11-12T23:19:56.673Z,31.80
2022-11-12T23:22:42.583Z,30.58
2022-11-12T23:25:28.520Z,31.25
2022-11-12T23:28:14.247Z,30.62
2022-11-12T23:31:00.355Z,31.42
2022-11-12T23:33:47.625Z,31.35
2022-11-12T23:36:33.483Z,31.15
2022-11-12T23:39:19.186Z,30.98
2022-11-12T23:42:05.350Z,30.48
2022-11-12T23:44:50.955Z,29.48
2022-11-12T23:47:36.509Z,30.52
2022-11-12T23:50:22.327Z,29.55
2022-11-12T23:53:07.904Z,28.87
2022-11-12T23:55:54.127Z,30.52
2022-11-12T23:58:41.073Z,29.98
